< < Back
Terminal Aerodrome Forecast


Current Version              Previous Versions:   1  2  3  4  5  6  7  8  9  

Terminal Aerodrome Forecast

010
FTUS44 KBMX 281154 AAA
TAFTCL
TAF AMD
KTCL 281154Z 2812/2912 36003KT P6SM SCT005
      TEMPO 2812/2814 BKN008
     FM281400 02005KT P6SM SCT020 BKN100
     FM281600 02010KT P6SM SCT035 BKN150
     FM282100 36010KT P6SM VCTS BKN050CB
     FM290100 01005KT P6SM BKN250=



Latest METAR

413
SAUS70 KWBC 281800 RRN
MTRTCL
METAR KTCL 281753Z 00000KT 8SM OVC023 27/23 A3005 RMK AO2 SLP174
T02670228 10267 20239 51000


USA.gov is the U.S. government's official web portal to all federal, state and local government web resources and services.